createdAt,value
2018-05-17T00:00:55.755Z,92.81
2018-05-17T00:03:22.157Z,92.75
2018-05-17T00:05:48.513Z,91.99
2018-05-17T00:08:14.884Z,92.55
2018-05-17T00:10:41.245Z,93.14
2018-05-17T00:13:07.659Z,93.62
2018-05-17T00:15:34.178Z,93.37
2018-05-17T00:18:00.521Z,94.12
2018-05-17T00:20:26.971Z,94.29
2018-05-17T00:22:53.381Z,95.82
2018-05-17T00:25:19.758Z,94.56
2018-05-17T00:27:46.274Z,95.34
2018-05-17T00:30:12.662Z,95.74
2018-05-17T00:32:39.097Z,95.41
2018-05-17T00:35:05.488Z,95.48
2018-05-17T00:37:31.829Z,96.06
2018-05-17T00:39:58.146Z,95.05
2018-05-17T00:42:24.636Z,95.72
2018-05-17T00:44:51.034Z,95.29
2018-05-17T00:47:17.465Z,95.98
2018-05-17T00:49:43.844Z,95.32
2018-05-17T00:52:10.285Z,95.66
2018-05-17T00:54:36.666Z,94.91
2018-05-17T00:57:03.062Z,95.37
2018-05-17T00:59:29.446Z,95.41
2018-05-17T01:01:55.892Z,95.49
2018-05-17T01:04:22.362Z,94.83
2018-05-17T01:06:48.793Z,97.05
2018-05-17T01:09:15.187Z,94.30
2018-05-17T01:11:41.634Z,96.43
2018-05-17T01:14:08.009Z,95.01
2018-05-17T01:16:34.446Z,96.77
2018-05-17T01:19:00.938Z,96.81
2018-05-17T01:21:27.325Z,96.55
2018-05-17T01:23:53.696Z,96.23
2018-05-17T01:26:20.072Z,96.12
2018-05-17T01:28:46.572Z,96.37
2018-05-17T01:31:13.097Z,95.96
2018-05-17T01:33:39.477Z,96.15
2018-05-17T01:36:05.917Z,97.24
2018-05-17T01:38:32.328Z,96.43
2018-05-17T01:40:58.709Z,96.44
2018-05-17T01:43:25.139Z,96.19
2018-05-17T01:45:51.577Z,95.57
2018-05-17T01:48:17.942Z,96.93
2018-05-17T01:50:44.347Z,96.52
2018-05-17T01:53:10.845Z,96.44
2018-05-17T01:55:37.289Z,97.18
2018-05-17T01:58:03.716Z,96.79
2018-05-17T02:00:30.500Z,96.21
2018-05-17T02:02:56.986Z,94.95
2018-05-17T02:05:23.343Z,95.48
2018-05-17T02:07:49.716Z,96.57
2018-05-17T02:10:16.123Z,96.66
2018-05-17T02:12:42.635Z,96.13
2018-05-17T02:15:09.047Z,94.38
2018-05-17T02:17:35.519Z,96.13
2018-05-17T02:20:01.931Z,96.40
2018-05-17T02:22:28.331Z,97.51
2018-05-17T02:24:54.726Z,96.71
2018-05-17T02:27:21.156Z,97.26
2018-05-17T02:29:47.544Z,96.74
2018-05-17T02:32:14.019Z,96.69
2018-05-17T02:34:40.376Z,96.07
2018-05-17T02:37:06.857Z,95.72
2018-05-17T02:39:33.362Z,95.22
2018-05-17T02:41:59.769Z,95.14
2018-05-17T02:44:26.163Z,94.38
2018-05-17T02:46:52.564Z,94.40
2018-05-17T02:49:19.018Z,94.74
2018-05-17T02:51:45.460Z,95.54
2018-05-17T02:54:11.925Z,95.95
2018-05-17T02:56:38.289Z,95.74
2018-05-17T02:59:04.711Z,95.18
2018-05-17T03:01:31.191Z,95.24
2018-05-17T03:03:57.534Z,96.56
2018-05-17T03:06:23.924Z,95.71
2018-05-17T03:08:50.303Z,96.89
2018-05-17T03:11:16.666Z,97.14
2018-05-17T03:13:43.093Z,97.01
2018-05-17T03:16:09.584Z,96.36
2018-05-17T03:18:35.987Z,96.07
2018-05-17T03:21:02.356Z,95.83
2018-05-17T03:23:28.755Z,96.08
2018-05-17T03:25:55.162Z,95.75
2018-05-17T03:28:21.604Z,95.27
2018-05-17T03:30:48.027Z,92.85
2018-05-17T03:33:14.483Z,89.65
2018-05-17T03:35:40.802Z,85.90
2018-05-17T03:38:07.166Z,80.96
2018-05-17T03:40:33.525Z,77.33
2018-05-17T03:42:59.884Z,77.02
2018-05-17T03:45:26.193Z,80.76
2018-05-17T03:47:52.597Z,84.58
2018-05-17T03:50:19.053Z,85.64
2018-05-17T03:52:45.622Z,85.99
2018-05-17T03:55:12.126Z,85.88
2018-05-17T03:57:38.634Z,83.96
2018-05-17T04:00:05.196Z,79.85
2018-05-17T04:02:44.067Z,81.74
2018-05-17T04:05:22.690Z,84.91
2018-05-17T04:07:49.121Z,86.68
2018-05-17T04:10:15.556Z,86.84
2018-05-17T04:12:42.091Z,87.22
2018-05-17T04:15:08.615Z,86.74
2018-05-17T04:17:35.246Z,82.11
2018-05-17T04:20:01.710Z,77.33
2018-05-17T04:22:28.153Z,74.92
2018-05-17T04:24:54.598Z,71.67
2018-05-17T04:27:21.078Z,71.81
2018-05-17T04:29:47.669Z,72.88
2018-05-17T04:32:14.095Z,72.02
2018-05-17T04:34:40.565Z,67.90
2018-05-17T04:37:06.961Z,68.85
2018-05-17T04:39:33.387Z,76.35
2018-05-17T04:41:59.901Z,74.40
2018-05-17T04:44:26.406Z,76.83
2018-05-17T04:46:52.948Z,74.43
2018-05-17T04:49:19.375Z,74.97
2018-05-17T04:51:45.896Z,73.35
2018-05-17T04:54:12.298Z,71.29
2018-05-17T04:56:38.743Z,69.22
2018-05-17T04:59:05.469Z,73.92
2018-05-17T05:01:32.048Z,70.36
2018-05-17T05:03:58.592Z,68.71
2018-05-17T05:06:25.913Z,63.03
2018-05-17T05:08:52.339Z,64.94
2018-05-17T05:11:18.984Z,67.16
2018-05-17T05:13:45.330Z,64.29
2018-05-17T05:16:11.731Z,66.83
2018-05-17T05:18:38.235Z,71.52
2018-05-17T05:21:04.698Z,66.14
2018-05-17T05:23:31.562Z,67.92
2018-05-17T05:25:58.007Z,71.55
2018-05-17T05:28:24.646Z,71.74
2018-05-17T05:30:51.195Z,71.11
2018-05-17T05:33:19.505Z,70.51
2018-05-17T05:35:45.942Z,72.33
2018-05-17T05:38:12.338Z,74.76
2018-05-17T05:40:38.813Z,74.81
2018-05-17T05:43:05.271Z,75.36
2018-05-17T05:45:31.604Z,76.03
2018-05-17T05:47:58.007Z,71.86
2018-05-17T05:50:24.404Z,69.89
2018-05-17T05:52:57.854Z,72.22
2018-05-17T05:55:24.302Z,69.76
2018-05-17T05:57:50.693Z,69.02
2018-05-17T06:00:17.065Z,64.80
2018-05-17T06:02:43.630Z,67.50
2018-05-17T06:05:10.008Z,66.81
2018-05-17T06:07:36.411Z,65.61
2018-05-17T06:10:02.833Z,65.86
2018-05-17T06:12:29.216Z,65.15
2018-05-17T06:14:55.914Z,61.89
2018-05-17T06:17:22.565Z,64.07
2018-05-17T06:19:48.903Z,65.58
2018-05-17T06:22:16.456Z,66.36
2018-05-17T06:24:42.814Z,64.73
2018-05-17T06:27:10.023Z,60.27
2018-05-17T06:29:36.423Z,65.28
2018-05-17T06:32:02.932Z,60.50
2018-05-17T06:34:29.259Z,57.78
2018-05-17T06:36:55.641Z,59.18
2018-05-17T06:39:22.395Z,61.37
2018-05-17T06:41:48.924Z,61.56
2018-05-17T06:44:15.709Z,60.80
2018-05-17T06:46:42.279Z,59.85
2018-05-17T06:49:08.810Z,58.38
2018-05-17T06:51:36.325Z,61.30
2018-05-17T06:54:02.810Z,61.88
2018-05-17T06:56:29.736Z,57.81
2018-05-17T06:58:56.406Z,53.82
2018-05-17T07:01:23.335Z,54.34
2018-05-17T07:03:49.792Z,55.88
2018-05-17T07:06:16.838Z,54.80
2018-05-17T07:08:43.304Z,60.21
2018-05-17T07:11:09.753Z,52.66
2018-05-17T07:13:36.298Z,53.30
2018-05-17T07:16:02.773Z,54.56
2018-05-17T07:18:29.268Z,54.64
2018-05-17T07:20:55.613Z,56.18
2018-05-17T07:23:22.669Z,53.27
2018-05-17T07:25:49.644Z,58.55
2018-05-17T07:28:16.036Z,51.67
2018-05-17T07:30:42.497Z,53.53
2018-05-17T07:33:09.008Z,53.01
2018-05-17T07:35:35.513Z,53.51
2018-05-17T07:38:02.096Z,53.95
2018-05-17T07:40:28.657Z,50.80
2018-05-17T07:42:55.071Z,51.01
2018-05-17T07:45:21.465Z,50.83
2018-05-17T07:47:47.861Z,55.59
2018-05-17T07:50:14.272Z,53.25
2018-05-17T07:52:43.100Z,53.39
2018-05-17T07:55:09.563Z,50.75
2018-05-17T07:57:35.957Z,52.75
2018-05-17T08:00:02.461Z,50.33
2018-05-17T08:02:29.039Z,53.42
2018-05-17T08:04:55.390Z,51.97
2018-05-17T08:07:21.896Z,52.99
2018-05-17T08:09:48.276Z,56.77
2018-05-17T08:12:14.762Z,53.87
2018-05-17T08:14:41.141Z,52.55
2018-05-17T08:17:07.596Z,53.77
2018-05-17T08:19:33.944Z,58.52
2018-05-17T08:22:00.468Z,55.30
2018-05-17T08:24:27.225Z,57.30
2018-05-17T08:26:53.613Z,59.58
2018-05-17T08:29:20.089Z,54.48
2018-05-17T08:31:46.511Z,55.33
2018-05-17T08:34:12.864Z,54.73
2018-05-17T08:36:39.433Z,56.73
2018-05-17T08:39:05.888Z,55.59
2018-05-17T08:41:32.283Z,53.27
2018-05-17T08:43:58.739Z,54.86
2018-05-17T08:46:25.091Z,52.93
2018-05-17T08:48:51.511Z,52.53
2018-05-17T08:51:17.910Z,51.74
2018-05-17T08:53:44.625Z,53.08
2018-05-17T08:56:11.273Z,49.83
2018-05-17T08:58:37.655Z,52.28
2018-05-17T09:01:04.091Z,48.42
2018-05-17T09:03:30.595Z,53.26
2018-05-17T09:05:57.055Z,48.64
2018-05-17T09:08:23.378Z,47.02
2018-05-17T09:10:49.759Z,53.76
2018-05-17T09:13:16.266Z,50.56
2018-05-17T09:15:42.686Z,42.71
2018-05-17T09:18:09.065Z,47.25
2018-05-17T09:20:35.522Z,48.18
2018-05-17T09:23:01.951Z,45.79
2018-05-17T09:25:28.519Z,47.83
2018-05-17T09:27:54.890Z,56.25
2018-05-17T09:30:21.361Z,45.68
2018-05-17T09:32:47.774Z,52.55
2018-05-17T09:35:14.126Z,46.91
2018-05-17T09:37:40.540Z,40.19
2018-05-17T09:40:07.024Z,44.17
2018-05-17T09:42:33.591Z,39.27
2018-05-17T09:45:00.054Z,42.20
2018-05-17T09:47:26.450Z,45.58
2018-05-17T09:49:52.873Z,38.47
2018-05-17T09:52:19.403Z,36.52
2018-05-17T09:54:45.977Z,40.14
2018-05-17T09:57:12.414Z,43.10
2018-05-17T09:59:38.822Z,39.61
2018-05-17T10:02:05.322Z,33.84
2018-05-17T10:04:31.746Z,41.01
2018-05-17T10:06:58.145Z,40.15
2018-05-17T10:09:24.547Z,38.79
2018-05-17T10:11:50.970Z,40.21
2018-05-17T10:14:17.409Z,36.04
2018-05-17T10:16:44.040Z,36.80
2018-05-17T10:19:10.400Z,40.26
2018-05-17T10:21:36.807Z,41.98
2018-05-17T10:24:03.319Z,32.02
2018-05-17T10:26:29.714Z,35.30
2018-05-17T10:28:56.264Z,36.49
2018-05-17T10:31:22.696Z,36.62
2018-05-17T10:33:49.161Z,35.38
2018-05-17T10:36:15.702Z,37.14
2018-05-17T10:38:42.105Z,36.97
2018-05-17T10:41:08.697Z,37.59
2018-05-17T10:43:35.179Z,34.80
2018-05-17T10:46:01.507Z,34.08
2018-05-17T10:48:27.869Z,38.52
2018-05-17T10:50:54.272Z,41.66
2018-05-17T10:53:20.663Z,31.81
2018-05-17T10:55:47.087Z,36.76
2018-05-17T10:58:13.508Z,38.50
2018-05-17T11:00:39.981Z,36.92
2018-05-17T11:03:06.458Z,36.27
2018-05-17T11:05:32.849Z,37.01
2018-05-17T11:07:59.227Z,37.62
2018-05-17T11:10:25.743Z,38.15
2018-05-17T11:12:52.185Z,38.58
2018-05-17T11:15:18.651Z,35.77
2018-05-17T11:17:45.071Z,41.65
2018-05-17T11:20:11.545Z,37.47
2018-05-17T11:22:38.076Z,42.32
2018-05-17T11:25:04.510Z,36.77
2018-05-17T11:27:30.939Z,40.64
2018-05-17T11:29:57.289Z,40.65
2018-05-17T11:32:23.707Z,40.78
2018-05-17T11:34:50.107Z,41.72
2018-05-17T11:37:16.537Z,40.77
2018-05-17T11:39:42.936Z,38.55
2018-05-17T11:42:09.558Z,38.15
2018-05-17T11:44:36.057Z,35.77
2018-05-17T11:47:02.443Z,41.65
2018-05-17T11:49:28.938Z,35.19
2018-05-17T11:51:55.434Z,37.90
2018-05-17T11:54:21.837Z,39.53
2018-05-17T11:56:48.384Z,38.44
2018-05-17T11:59:14.909Z,37.89
2018-05-17T12:01:41.403Z,38.10
2018-05-17T12:04:08.037Z,36.09
2018-05-17T12:06:34.553Z,37.83
2018-05-17T12:09:01.052Z,39.31
2018-05-17T12:11:27.771Z,39.11
2018-05-17T12:13:54.307Z,38.35
2018-05-17T12:16:20.700Z,38.27
2018-05-17T12:18:47.135Z,34.71
2018-05-17T12:21:13.458Z,37.50
2018-05-17T12:23:39.951Z,36.58
2018-05-17T12:26:06.568Z,38.77
2018-05-17T12:28:33.229Z,40.21
2018-05-17T12:30:59.789Z,36.81
2018-05-17T12:33:27.254Z,39.12
2018-05-17T12:35:53.712Z,36.42
2018-05-17T12:38:20.355Z,37.39
2018-05-17T12:40:46.726Z,38.11
2018-05-17T12:43:13.278Z,36.43
2018-05-17T12:45:39.709Z,37.85
2018-05-17T12:48:06.240Z,35.38
2018-05-17T12:50:32.699Z,37.45
2018-05-17T12:52:59.148Z,39.31
2018-05-17T12:55:26.613Z,39.80
2018-05-17T12:57:53.088Z,38.21
2018-05-17T13:00:19.505Z,37.96
2018-05-17T13:02:46.015Z,39.14
2018-05-17T13:05:28.981Z,38.32
2018-05-17T13:07:55.389Z,38.26
2018-05-17T13:10:21.782Z,38.51
2018-05-17T13:12:48.264Z,37.75
2018-05-17T13:15:14.765Z,35.33
2018-05-17T13:17:41.221Z,38.01
2018-05-17T13:20:07.647Z,39.44
2018-05-17T13:22:34.163Z,38.76
2018-05-17T13:25:00.676Z,36.66
2018-05-17T13:27:27.118Z,37.20
2018-05-17T13:29:53.645Z,39.52
2018-05-17T13:32:20.106Z,34.21
2018-05-17T13:34:46.578Z,40.92
2018-05-17T13:37:13.139Z,38.65
2018-05-17T13:39:39.593Z,42.56
2018-05-17T13:42:06.000Z,36.64
2018-05-17T13:44:32.526Z,41.88
2018-05-17T13:46:59.071Z,42.96
2018-05-17T13:49:25.502Z,37.24
2018-05-17T13:51:51.928Z,41.71
2018-05-17T13:54:18.365Z,38.89
2018-05-17T13:56:45.505Z,36.15
2018-05-17T13:59:11.958Z,37.96
2018-05-17T14:01:38.446Z,34.13
2018-05-17T14:04:05.126Z,32.61
2018-05-17T14:06:31.775Z,31.73
2018-05-17T14:08:58.196Z,33.28
2018-05-17T14:11:24.589Z,33.70
2018-05-17T14:13:52.102Z,33.20
2018-05-17T14:16:18.420Z,32.64
2018-05-17T14:18:44.859Z,34.77
2018-05-17T14:21:11.362Z,29.79
2018-05-17T14:23:37.956Z,31.96
2018-05-17T14:26:04.357Z,31.80
2018-05-17T14:28:30.779Z,30.06
2018-05-17T14:30:57.242Z,34.52
2018-05-17T14:33:23.739Z,33.64
2018-05-17T14:35:50.234Z,35.15
2018-05-17T14:38:16.720Z,35.11
2018-05-17T14:40:43.190Z,31.79
2018-05-17T14:43:10.021Z,31.96
2018-05-17T14:45:36.413Z,34.99
2018-05-17T14:48:02.914Z,32.50
2018-05-17T14:50:29.527Z,34.61
2018-05-17T14:52:56.043Z,34.58
2018-05-17T14:55:22.571Z,33.41
2018-05-17T14:57:48.998Z,31.35
2018-05-17T15:00:15.448Z,32.15
2018-05-17T15:02:41.850Z,32.14
2018-05-17T15:05:08.391Z,32.15
2018-05-17T15:07:34.792Z,33.86
2018-05-17T15:10:01.290Z,34.31
2018-05-17T15:12:27.875Z,32.83
2018-05-17T15:14:54.436Z,36.83
2018-05-17T15:17:20.870Z,34.57
2018-05-17T15:19:47.392Z,38.83
2018-05-17T15:22:13.985Z,39.82
2018-05-17T15:24:40.897Z,38.81
2018-05-17T15:27:07.310Z,36.98
2018-05-17T15:29:33.734Z,35.79
2018-05-17T15:32:00.190Z,36.23
2018-05-17T15:34:26.786Z,36.04
2018-05-17T15:36:53.311Z,34.96
2018-05-17T15:39:19.761Z,34.99
2018-05-17T15:41:46.306Z,35.48
2018-05-17T15:44:12.780Z,39.09
2018-05-17T15:46:39.214Z,38.99
2018-05-17T15:49:05.682Z,36.83
2018-05-17T15:51:32.103Z,38.54
2018-05-17T15:53:58.629Z,36.34
2018-05-17T15:56:25.448Z,37.84
2018-05-17T15:58:52.550Z,38.88
2018-05-17T16:01:19.077Z,35.19
2018-05-17T16:03:45.642Z,39.07
2018-05-17T16:06:12.200Z,38.79
2018-05-17T16:08:38.749Z,37.99
2018-05-17T16:11:05.390Z,40.76
2018-05-17T16:13:32.081Z,38.51
2018-05-17T16:15:58.535Z,38.06
2018-05-17T16:18:25.176Z,37.74
2018-05-17T16:20:52.433Z,41.47
2018-05-17T16:23:18.931Z,43.38
2018-05-17T16:25:45.440Z,44.47
2018-05-17T16:28:11.999Z,47.80
2018-05-17T16:30:38.474Z,44.64
2018-05-17T16:33:04.995Z,48.46
2018-05-17T16:35:31.550Z,49.70
2018-05-17T16:37:58.047Z,48.62
2018-05-17T16:40:24.699Z,48.02
2018-05-17T16:42:51.476Z,48.47
2018-05-17T16:45:17.897Z,50.39
2018-05-17T16:47:44.601Z,52.35
2018-05-17T16:50:11.165Z,53.03
2018-05-17T16:52:38.008Z,52.00
2018-05-17T16:55:04.687Z,53.79
2018-05-17T16:57:31.237Z,54.51
2018-05-17T16:59:57.729Z,53.91
2018-05-17T17:02:24.376Z,54.57
2018-05-17T17:04:51.061Z,55.31
2018-05-17T17:07:17.802Z,55.28
2018-05-17T17:09:44.329Z,56.47
2018-05-17T17:12:10.915Z,56.33
2018-05-17T17:14:37.490Z,58.22
2018-05-17T17:17:03.947Z,59.04
2018-05-17T17:19:30.551Z,59.04
2018-05-17T17:21:57.325Z,60.94
2018-05-17T17:24:23.871Z,60.87
2018-05-17T17:26:51.252Z,60.88
2018-05-17T17:29:17.784Z,62.80
2018-05-17T17:31:44.348Z,63.48
2018-05-17T17:34:11.811Z,63.97
2018-05-17T17:36:38.465Z,63.52
2018-05-17T17:39:05.819Z,63.22
2018-05-17T17:41:32.332Z,65.11
2018-05-17T17:44:03.641Z,65.77
2018-05-17T17:46:31.169Z,65.34
2018-05-17T17:48:57.805Z,66.63
2018-05-17T17:51:24.351Z,67.77
2018-05-17T17:53:51.783Z,70.40
2018-05-17T17:56:18.548Z,72.92
2018-05-17T17:58:45.089Z,68.48
2018-05-17T18:01:11.702Z,69.63
2018-05-17T18:03:38.435Z,69.52
2018-05-17T18:06:05.078Z,69.72
2018-05-17T18:08:32.148Z,68.77
2018-05-17T18:10:58.681Z,70.22
2018-05-17T18:13:25.270Z,70.00
2018-05-17T18:15:53.117Z,72.67
2018-05-17T18:18:20.127Z,74.33
2018-05-17T18:20:46.951Z,73.22
2018-05-17T18:23:14.564Z,74.43
2018-05-17T18:25:41.343Z,74.69
2018-05-17T18:28:07.883Z,71.58
2018-05-17T18:30:34.885Z,73.63
2018-05-17T18:33:01.629Z,75.93
2018-05-17T18:35:28.369Z,73.12
2018-05-17T18:37:54.999Z,74.66
2018-05-17T18:40:21.723Z,77.01
2018-05-17T18:42:48.580Z,75.57
2018-05-17T18:45:15.545Z,75.66
2018-05-17T18:47:42.361Z,73.76
2018-05-17T18:50:09.038Z,73.86
2018-05-17T18:52:35.672Z,72.80
2018-05-17T18:55:02.286Z,72.95
2018-05-17T18:57:28.915Z,74.92
2018-05-17T18:59:55.784Z,76.54
2018-05-17T19:02:22.516Z,74.80
2018-05-17T19:04:49.719Z,74.24
2018-05-17T19:07:16.522Z,75.16
2018-05-17T19:09:43.223Z,74.08
2018-05-17T19:12:09.776Z,75.61
2018-05-17T19:14:36.584Z,77.06
2018-05-17T19:17:03.421Z,75.72
2018-05-17T19:19:30.048Z,76.60
2018-05-17T19:21:56.825Z,77.75
2018-05-17T19:24:23.412Z,79.92
2018-05-17T19:26:50.228Z,77.50
2018-05-17T19:29:17.241Z,74.71
2018-05-17T19:31:43.913Z,77.65
2018-05-17T19:34:10.629Z,74.73
2018-05-17T19:36:38.388Z,78.87
2018-05-17T19:39:06.120Z,77.91
2018-05-17T19:41:32.812Z,78.90
2018-05-17T19:43:59.486Z,82.10
2018-05-17T19:46:26.107Z,80.02
2018-05-17T19:48:52.622Z,78.47
2018-05-17T19:51:19.583Z,79.10
2018-05-17T19:53:46.789Z,78.91
2018-05-17T19:56:13.479Z,77.82
2018-05-17T19:58:41.549Z,77.91
2018-05-17T20:01:08.726Z,77.43
2018-05-17T20:03:35.375Z,76.83
2018-05-17T20:06:01.964Z,76.98
2018-05-17T20:08:28.523Z,80.31
2018-05-17T20:10:54.988Z,77.40
2018-05-17T20:13:21.588Z,78.22
2018-05-17T20:15:48.019Z,80.37
2018-05-17T20:18:14.468Z,78.47
2018-05-17T20:20:41.053Z,79.13
2018-05-17T20:23:07.636Z,81.55
2018-05-17T20:25:34.094Z,82.15
2018-05-17T20:28:00.552Z,81.62
2018-05-17T20:30:27.107Z,80.31
2018-05-17T20:32:53.664Z,80.55
2018-05-17T20:35:20.065Z,81.84
2018-05-17T20:37:46.479Z,82.27
2018-05-17T20:40:12.876Z,81.71
2018-05-17T20:42:39.339Z,80.09
2018-05-17T20:45:05.814Z,80.60
2018-05-17T20:47:32.276Z,77.05
2018-05-17T20:49:58.802Z,80.31
2018-05-17T20:52:25.241Z,82.23
2018-05-17T20:54:51.705Z,82.21
2018-05-17T20:57:18.321Z,84.91
2018-05-17T20:59:44.902Z,84.06
2018-05-17T21:02:11.279Z,82.40
2018-05-17T21:04:37.989Z,81.97
2018-05-17T21:07:05.219Z,81.95
2018-05-17T21:09:31.790Z,82.91
2018-05-17T21:11:58.328Z,81.98
2018-05-17T21:14:24.751Z,79.96
2018-05-17T21:16:51.906Z,83.01
2018-05-17T21:19:18.348Z,80.01
2018-05-17T21:21:44.728Z,83.30
2018-05-17T21:24:11.222Z,81.43
2018-05-17T21:26:37.670Z,82.67
2018-05-17T21:29:04.078Z,76.82
2018-05-17T21:31:30.454Z,73.53
2018-05-17T21:33:56.963Z,70.40
2018-05-17T21:36:23.363Z,69.37
2018-05-17T21:38:49.727Z,70.63
2018-05-17T21:41:16.138Z,73.07
2018-05-17T21:43:42.589Z,79.48
2018-05-17T21:46:08.929Z,78.23
2018-05-17T21:48:35.372Z,78.07
2018-05-17T21:51:01.768Z,79.87
2018-05-17T21:53:28.256Z,80.86
2018-05-17T21:55:54.759Z,83.08
2018-05-17T21:58:21.245Z,80.57
2018-05-17T22:00:47.675Z,84.80
2018-05-17T22:03:14.379Z,84.89
2018-05-17T22:05:40.934Z,84.07
2018-05-17T22:08:07.319Z,83.36
2018-05-17T22:10:33.795Z,82.16
2018-05-17T22:13:00.176Z,80.09
2018-05-17T22:15:26.678Z,81.01
2018-05-17T22:17:53.149Z,82.70
2018-05-17T22:20:19.522Z,83.89
2018-05-17T22:22:45.854Z,84.76
2018-05-17T22:25:12.400Z,86.14
2018-05-17T22:27:38.755Z,86.04
2018-05-17T22:30:05.178Z,88.02
2018-05-17T22:32:31.610Z,88.46
2018-05-17T22:34:58.053Z,86.44
2018-05-17T22:37:24.446Z,89.13
2018-05-17T22:39:50.801Z,88.35
2018-05-17T22:42:17.211Z,88.73
2018-05-17T22:44:43.595Z,89.04
2018-05-17T22:47:10.080Z,89.41
2018-05-17T22:49:36.427Z,89.77
2018-05-17T22:52:02.830Z,89.04
2018-05-17T22:54:29.232Z,88.79
2018-05-17T22:57:06.914Z,89.29
2018-05-17T22:59:33.393Z,89.80
2018-05-17T23:01:59.827Z,89.93
2018-05-17T23:04:26.221Z,88.86
2018-05-17T23:06:52.673Z,90.04
2018-05-17T23:09:19.039Z,89.61
2018-05-17T23:11:45.469Z,90.50
2018-05-17T23:14:11.932Z,90.53
2018-05-17T23:16:38.297Z,89.71
2018-05-17T23:19:04.674Z,90.77
2018-05-17T23:21:31.080Z,88.56
2018-05-17T23:23:57.501Z,88.02
2018-05-17T23:26:23.932Z,89.67
2018-05-17T23:28:50.509Z,89.62
2018-05-17T23:31:16.866Z,90.15
2018-05-17T23:33:43.334Z,87.81
2018-05-17T23:36:09.764Z,89.22
2018-05-17T23:38:36.304Z,89.61
2018-05-17T23:41:14.970Z,87.32
2018-05-17T23:43:41.368Z,86.49
2018-05-17T23:46:07.848Z,88.46
2018-05-17T23:48:34.344Z,87.02
2018-05-17T23:51:00.710Z,83.39
2018-05-17T23:53:27.171Z,85.42
2018-05-17T23:55:53.612Z,89.11
2018-05-17T23:58:19.965Z,89.38
